Latest Weather Observations for Trangie

IDN60801

Issued at 8:33 am EST Sunday 25 September 2016 (issued every 30 minutes, with the page automatically refreshed every 10 minutes)

About weather observations | Map of weather stations | Latest weather observations for NSW | Other Formats
Station Details ID: 051049 Name: TRANGIE RESEARCH STATION AWS Lat: -31.99 Lon: 147.95 Height: 215.0 m
Data from the previous 72 hours. | See also: Recent months at Trangie
Date/Time
EST
Temp
°C
App
Temp
°C
Dew
Point
°C
Rel
Hum
%
Delta-T
°C
Wind Press
QNH
hPa
Press
MSL
hPa
Rain since
9am
mm
Dir  Spd
km/h
Gust
km/h
Spd
kts
Gust
kts
25/08:30am 12.5 11.9 11.7 95 0.4 ESE 6 9 3 5 1009.8 1009.6 8.6
25/08:00am 12.2 11.0 11.6 96 0.3 SE 9 15 5 8 1009.6 1009.4 8.6
25/07:30am 11.8 10.5 11.2 96 0.3 SSE 9 11 5 6 1009.5 1009.3 8.6
25/07:00am 11.7 10.3 10.9 95 0.4 SSE 9 15 5 8 1009.3 1009.1 8.6
25/06:30am 11.7 9.9 10.9 95 0.4 SSE 11 17 6 9 1008.9 1008.7 8.4
25/06:00am 11.8 10.0 11.0 95 0.4 SE 11 19 6 10 1008.5 1008.3 8.4
25/05:30am 12.1 10.4 11.3 95 0.4 SSE 11 15 6 8 1008.0 1007.9 7.4
25/05:00am 12.2 10.6 11.4 95 0.4 SSE 11 15 6 8 1008.0 1007.9 7.2
25/04:30am 12.3 11.4 11.4 94 0.5 SSE 7 11 4 6 1007.9 1007.8 5.8
25/04:00am 12.4 11.7 11.5 94 0.5 SSE 6 7 3 4 1007.7 1007.6 5.2
25/03:30am 12.7 11.9 11.6 93 0.6 SSE 7 11 4 6 1007.7 1007.6 3.4
25/03:00am 13.0 12.5 12.1 94 0.5 SSE 6 9 3 5 1007.7 1007.6 2.4
25/02:30am 13.1 12.6 12.0 93 0.6 E 6 7 3 4 1007.5 1007.4 2.0
25/02:00am 13.3 13.2 12.2 93 0.6 ENE 4 7 2 4 1007.9 1007.8 1.0
25/01:30am 13.3 12.8 12.0 92 0.7 N 6 9 3 5 1008.3 1008.2 1.0
25/01:00am 13.5 14.2 12.1 91 0.8 CALM 0 0 0 0 1008.9 1008.7 0.8
25/12:30am 13.8 14.5 12.2 90 0.9 CALM 0 6 0 3 1009.3 1009.1 0.6
25/12:00am 13.9 14.2 12.1 89 1.0 NNE 2 9 1 5 1009.5 1009.3 0.6
 
Date/Time
EST
Temp
°C
App
Temp
°C
Dew
Point
°C
Rel
Hum
%
Delta-T
°C
Wind Press
QNH
hPa
Press
MSL
hPa
Rain since
9am
mm
Dir  Spd
km/h
Gust
km/h
Spd
kts
Gust
kts
24/11:30pm 14.5 13.9 11.7 83 1.5 N 6 9 3 5 1009.2 1009.0 0.0
24/11:00pm 15.0 13.7 11.2 78 2.1 N 9 13 5 7 1009.7 1009.5 0.0
24/10:30pm 15.2 14.1 10.6 74 2.5 N 7 9 4 5 1009.7 1009.5 0.0
24/10:00pm 15.6 14.1 10.6 72 2.7 N 9 13 5 7 1010.0 1009.8 0.0
24/09:30pm 15.5 14.6 10.7 73 2.6 N 6 9 3 5 1009.7 1009.5 0.0
24/09:00pm 15.8 14.7 10.6 71 2.8 NNE 7 9 4 5 1010.0 1009.8 0.0
24/08:30pm 15.4 15.3 10.8 74 2.5 NW 2 6 1 3 1010.0 1009.8 0.0
24/08:00pm 16.0 14.1 10.5 70 2.9 ENE 11 17 6 9 1009.2 1009.0 0.0
24/07:30pm 16.0 14.9 10.5 70 2.9 NNE 7 9 4 5 1009.8 1009.6 0.0
24/07:00pm 16.2 15.4 11.8 75 2.4 ENE 7 9 4 5 1009.7 1009.5 0.0
24/06:30pm 16.0 16.2 10.5 70 2.9 CALM 0 0 0 0 1010.0 1009.8 0.0
24/06:00pm 16.6 16.7 10.2 66 3.4 CALM 0 0 0 0 1009.8 1009.6 0.0
24/05:30pm 17.6 16.4 9.5 59 4.3 N 6 7 3 4 1009.7 1009.5 0.0
24/05:00pm 18.2 16.4 9.5 57 4.6 N 9 13 5 7 1009.6 1009.4 0.0
24/04:30pm 19.0 15.8 8.4 50 5.5 N 15 20 8 11 1009.5 1009.3 0.0
24/04:00pm 20.1 17.3 9.9 52 5.5 NNW 15 20 8 11 1009.4 1009.2 0.0
24/03:30pm 19.4 16.8 9.3 52 5.4 NNW 13 17 7 9 1009.6 1009.4 0.0
24/03:00pm 20.2 16.6 8.5 47 6.2 NNW 17 24 9 13 1009.6 1009.4 0.0
24/02:30pm 21.0 18.1 8.0 43 6.8 NNW 13 20 7 11 1009.7 1009.5 0.0
24/02:00pm 21.1 18.6 9.7 48 6.2 NNW 13 22 7 12 1009.7 1009.5 0.0
24/01:30pm 20.4 17.3 10.2 52 5.6 N 17 26 9 14 1010.1 1009.9 0.0
24/01:00pm 20.1 17.6 11.1 56 5.0 NW 15 26 8 14 1010.6 1010.4 0.0
24/12:30pm 19.2 16.0 9.9 55 5.0 NNW 17 24 9 13 1011.2 1011.1 0.0
24/12:00pm 19.5 17.1 10.2 55 5.1 N 13 19 7 10 1011.6 1011.5 0.0
24/11:30am 20.0 17.7 11.8 59 4.6 N 15 24 8 13 1011.7 1011.6 0.0
24/11:00am 18.8 15.9 9.6 55 4.9 N 15 22 8 12 1011.8 1011.7 0.0
24/10:30am 19.3 17.2 11.3 60 4.4 NNE 13 20 7 11 1012.3 1012.2 0.0
24/10:00am 18.1 16.3 9.5 57 4.6 N 9 17 5 9 1012.8 1012.7 0.0
24/09:30am 17.4 15.8 10.1 62 3.9 NNE 9 13 5 7 1013.1 1013.0 0.0
24/09:00am 16.3 15.1 10.4 68 3.2 NNE 7 11 4 6 1013.6 1013.4 0.0
24/08:30am 15.4 14.7 12.0 80 1.9 ENE 7 11 4 6 1013.7 1013.5 0.0
24/08:00am 13.7 13.5 13.1 96 0.3 ENE 6 7 3 4 1013.9 1013.7 0.0
24/07:30am 11.5 11.8 11.0 97 0.3 CALM 0 0 0 0 1014.0 1013.8 0.0
24/07:00am 7.4 6.7 7.0 97 0.2 CALM 0 0 0 0 1014.0 1013.8 0.0
24/06:30am 7.0 6.2 6.4 96 0.3 CALM 0 0 0 0 1013.7 1013.5 0.0
24/06:00am 6.8 5.9 6.2 96 0.3 CALM 0 0 0 0 1013.3 1013.1 0.0
24/05:30am 6.8 5.9 6.2 96 0.3 CALM 0 0 0 0 1012.7 1012.6 0.0
24/05:00am 7.8 7.2 7.2 96 0.3 CALM 0 0 0 0 1012.4 1012.3 0.0
24/04:30am 7.4 6.7 6.8 96 0.3 CALM 0 0 0 0 1012.3 1012.2 0.0
24/04:00am 6.7 5.8 6.1 96 0.3 CALM 0 0 0 0 1012.2 1012.1 0.0
24/03:30am 7.0 6.2 6.4 96 0.3 CALM 0 0 0 0 1012.1 1012.0 0.0
24/03:00am 8.8 8.0 8.2 96 0.3 E 2 6 1 3 1012.2 1012.1 0.0
24/02:30am 8.0 6.3 7.4 96 0.3 E 6 7 3 4 1012.2 1012.1 0.0
24/02:00am 8.1 7.5 7.5 96 0.3 CALM 0 0 0 0 1012.5 1012.4 0.0
24/01:30am 8.7 7.1 8.1 96 0.3 ESE 6 7 3 4 1012.5 1012.4 0.0
24/01:00am 8.6 6.8 7.8 95 0.4 SE 7 7 4 4 1012.5 1012.4 0.0
24/12:30am 8.7 6.9 7.9 95 0.4 ESE 7 11 4 6 1012.7 1012.6 0.0
24/12:00am 9.1 8.7 8.2 94 0.4 CALM 0 0 0 0 1012.7 1012.6 0.0
 
Date/Time
EST
Temp
°C
App
Temp
°C
Dew
Point
°C
Rel
Hum
%
Delta-T
°C
Wind Press
QNH
hPa
Press
MSL
hPa
Rain since
9am
mm
Dir  Spd
km/h
Gust
km/h
Spd
kts
Gust
kts
23/11:30pm 9.3 8.9 8.2 93 0.5 CALM 0 0 0 0 1012.8 1012.7 0.0
23/11:00pm 10.1 9.9 9.0 93 0.5 CALM 0 0 0 0 1012.8 1012.7 0.0
23/10:30pm 11.1 11.2 10.2 94 0.5 CALM 0 0 0 0 1012.8 1012.7 0.0
23/10:00pm 11.1 11.1 9.9 92 0.6 CALM 0 0 0 0 1013.3 1013.1 0.0
23/09:30pm 11.0 11.0 9.8 92 0.6 CALM 0 0 0 0 1013.5 1013.3 0.0
23/09:00pm 10.9 10.8 9.3 90 0.8 CALM 0 0 0 0 1013.7 1013.5 0.0
23/08:30pm 11.4 11.4 9.7 89 0.9 CALM 0 0 0 0 1013.7 1013.5 0.0
23/08:00pm 12.1 12.1 9.8 86 1.2 CALM 0 0 0 0 1013.5 1013.3 0.0
23/07:30pm 12.8 12.7 9.6 81 1.6 CALM 0 0 0 0 1013.4 1013.2 0.0
23/07:00pm 13.4 13.4 9.8 79 1.9 CALM 0 0 0 0 1013.4 1013.2 0.0
23/06:30pm 14.4 13.7 10.0 75 2.3 WNW 4 6 2 3 1013.1 1013.0 0.0
23/06:00pm 16.4 15.4 11.1 71 2.9 W 7 7 4 4 1012.9 1012.8 0.0
23/05:30pm 17.6 16.8 11.6 68 3.3 W 7 9 4 5 1012.7 1012.6 0.0
23/05:00pm 18.8 17.4 10.9 60 4.3 WSW 9 13 5 7 1012.7 1012.6 0.0
23/04:30pm 18.2 16.8 11.0 63 3.9 WSW 9 11 5 6 1012.8 1012.7 0.0
23/04:00pm 19.4 17.6 10.9 58 4.7 WSW 11 15 6 8 1012.6 1012.5 0.0
23/03:30pm 18.6 16.4 10.7 60 4.3 WSW 13 19 7 10 1012.7 1012.6 0.0
23/03:00pm 19.9 18.3 11.4 58 4.7 WSW 11 15 6 8 1012.7 1012.6 0.0
23/02:30pm 19.5 17.7 10.8 57 4.8 W 11 17 6 9 1012.8 1012.7 0.0
23/02:00pm 17.2 15.3 10.6 65 3.6 WSW 11 15 6 8 1013.5 1013.3 0.0
23/01:30pm 19.1 17.1 11.4 61 4.3 WSW 13 19 7 10 1013.7 1013.5 0.0
23/01:00pm 18.6 16.6 11.4 63 4.0 SW 13 20 7 11 1014.3 1014.1 0.0
23/12:30pm 17.9 15.6 11.9 68 3.3 WSW 15 20 8 11 1014.5 1014.3 0.0
23/12:00pm 17.7 15.8 11.9 69 3.2 WSW 13 17 7 9 1014.9 1014.8 0.0
23/11:30am 16.7 14.7 11.6 72 2.8 WSW 13 19 7 10 1015.3 1015.2 0.0
23/11:00am 16.1 14.6 10.4 69 3.0 WSW 9 15 5 8 1015.4 1015.3 0.0
23/10:30am 15.4 14.3 10.6 73 2.6 SW 7 13 4 7 1015.9 1015.8 0.0
23/10:00am 14.4 12.7 9.8 74 2.4 SSW 9 15 5 8 1016.2 1016.1 0.0
23/09:30am 13.6 11.8 9.5 76 2.1 S 9 15 5 8 1016.4 1016.3 0.0
23/09:00am 13.0 11.2 9.4 79 1.8 SSE 9 15 5 8 1016.4 1016.3 0.0
23/08:30am 11.7 9.5 9.3 85 1.2 SSW 11 15 6 8 1016.2 1016.1 0.0
23/08:00am 10.5 8.1 8.6 88 0.9 SSW 11 15 6 8 1016.3 1016.2 0.0
23/07:30am 9.5 7.5 8.6 94 0.4 SW 9 13 5 7 1016.2 1016.1 0.0
23/07:00am 7.7 5.9 7.1 96 0.3 SW 6 7 3 4 1016.0 1015.9 0.0
23/06:30am 5.2 2.7 4.5 95 0.3 SW 7 7 4 4 1015.7 1015.6 0.0
23/06:00am 5.2 2.8 4.3 94 0.4 SSW 6 7 3 4 1015.3 1015.2 0.0
23/05:30am 5.3 2.7 4.4 94 0.4 SW 7 9 4 5 1015.2 1015.1 0.0
23/05:00am 5.3 2.0 4.3 93 0.4 SW 11 13 6 7 1015.0 1014.9 0.0
23/04:30am 5.6 2.7 4.4 92 0.5 SW 9 11 5 6 1014.8 1014.7 0.0
23/04:00am 6.9 4.6 5.8 93 0.5 SSW 7 11 4 6 1014.6 1014.4 0.0
23/03:30am 7.1 4.6 6.4 95 0.3 SW 9 11 5 6 1014.6 1014.4 0.0
23/03:00am 6.2 3.4 5.3 94 0.4 SW 9 11 5 6 1014.6 1014.4 0.0
23/02:30am 6.3 3.9 5.4 94 0.4 SW 7 9 4 5 1014.7 1014.6 0.0
23/02:00am 6.7 3.7 5.8 94 0.4 WSW 11 13 6 7 1014.9 1014.8 0.0
23/01:30am 7.6 4.4 6.7 94 0.4 W 13 17 7 9 1015.2 1015.1 0.0
23/01:00am 7.7 4.9 6.8 94 0.4 W 11 13 6 7 1015.4 1015.3 0.0
23/12:30am 7.8 5.3 6.7 93 0.5 W 9 13 5 7 1015.6 1015.5 0.0
23/12:00am 8.4 6.0 7.0 91 0.7 WSW 9 11 5 6 1015.8 1015.7 0.0
 
Date/Time
EST
Temp
°C
App
Temp
°C
Dew
Point
°C
Rel
Hum
%
Delta-T
°C
Wind Press
QNH
hPa
Press
MSL
hPa
Rain since
9am
mm
Dir  Spd
km/h
Gust
km/h
Spd
kts
Gust
kts
22/11:30pm 9.4 6.8 7.8 90 0.8 WSW 11 13 6 7 1016.1 1016.0 0.0
22/11:00pm 10.4 8.3 8.3 87 1.0 WSW 9 13 5 7 1016.2 1016.1 0.0
22/10:30pm 10.9 7.8 8.7 86 1.1 WSW 15 20 8 11 1016.2 1016.1 0.0
22/10:00pm 10.9 8.2 8.8 87 1.0 W 13 20 7 11 1016.3 1016.2 0.0
22/09:30pm 10.7 7.9 8.6 87 1.0 W 13 17 7 9 1016.3 1016.2 0.0
22/09:00pm 10.5 7.8 8.8 89 0.8 W 13 17 7 9 1016.4 1016.3 0.0
22/08:30pm 9.5 6.9 7.9 90 0.8 W 11 15 6 8 1016.3 1016.2 0.0
22/08:00pm 9.6 6.7 8.0 90 0.8 W 13 17 7 9 1016.2 1016.1 0.0
22/07:30pm 9.8 6.8 7.9 88 0.9 WSW 13 15 7 8 1015.9 1015.8 0.0
22/07:00pm 10.2 7.3 8.1 87 1.0 WSW 13 17 7 9 1015.7 1015.6 0.0
22/06:30pm 10.7 7.8 8.1 84 1.3 WSW 13 19 7 10 1015.4 1015.3 0.0
22/06:00pm 12.2 8.2 8.3 77 1.9 WSW 19 22 10 12 1015.2 1015.1 0.0
22/05:30pm 13.8 9.4 8.8 72 2.6 WSW 22 28 12 15 1015.1 1015.0 0.0
22/05:00pm 14.6 9.1 9.2 70 2.8 WSW 28 39 15 21 1014.7 1014.6 0.0
22/04:30pm 15.2 9.1 8.4 64 3.5 WSW 30 41 16 22 1014.4 1014.2 0.0
22/04:00pm 15.8 10.9 9.9 68 3.1 WSW 26 33 14 18 1014.2 1014.0 0.0
22/03:30pm 15.3 10.6 9.4 68 3.1 WSW 24 35 13 19 1014.2 1014.0 0.0
22/03:00pm 15.3 9.7 8.8 65 3.3 WSW 28 39 15 21 1014.0 1013.8 0.0
22/02:30pm 15.5 10.7 8.7 64 3.5 SW 24 35 13 19 1014.1 1013.9 0.0
22/02:00pm 15.0 10.2 8.9 67 3.1 WSW 24 33 13 18 1014.1 1013.9 0.0
22/01:30pm 15.0 10.1 8.5 65 3.3 WSW 24 33 13 18 1014.2 1014.0 0.0
22/01:00pm 15.1 9.9 8.8 66 3.2 WSW 26 37 14 20 1014.3 1014.1 0.0
22/12:30pm 15.4 10.3 9.3 67 3.2 WSW 26 33 14 18 1014.5 1014.3 0.0
22/12:00pm 15.3 10.6 9.2 67 3.2 SW 24 33 13 18 1014.7 1014.6 0.0
22/11:30am 15.8 10.3 9.2 65 3.4 SW 28 35 15 19 1014.8 1014.7 0.0
22/11:00am 14.9 10.2 9.1 68 3.0 WSW 24 35 13 19 1015.0 1014.9 0.0
22/10:30am 14.1 9.1 8.1 67 3.0 SW 24 33 13 18 1015.2 1015.1 0.0
22/10:00am 14.3 9.6 9.1 71 2.7 SW 24 33 13 18 1015.1 1015.0 0.0
22/09:30am 13.4 7.7 8.5 72 2.5 SW 28 39 15 21 1015.1 1015.0 0.0
22/09:00am 13.7 9.1 9.6 76 2.1 WSW 24 30 13 16 1014.9 1014.8 2.0

Other Formats:

Comma delimited format used in spreadsheet applications
http://www.bom.gov.au/fwo/IDN60801/IDN60801.95710.axf

JavaScript Object Notation format (JSON) in row-major order
http://www.bom.gov.au/fwo/IDN60801/IDN60801.95710.json